Time;durP1;ratioP1;P1;durP2;ratioP2;P2;SDS_P1;SDS_P2;PMS_P1;PMS_P2;Temp;Humidity;BMP_temperature;BMP_pressure;BME280_temperature;BME280_humidity;BME280_pressure;Samples;Min_cycle;Max_cycle;Signal;HPM_P1;HPM_P2
2022/05/14 00:00:36;;;;;;;8.43;3.50;;;;;;;12.67;61.77;101962.94;5059789;28;20112;-78
2022/05/14 00:03:02;;;;;;;8.68;3.33;;;;;;;12.62;62.24;101962.19;5055009;28;20083;-78
2022/05/14 00:05:28;;;;;;;11.23;3.42;;;;;;;12.57;62.17;101957.88;5063066;28;20463;-78
2022/05/14 00:07:54;;;;;;;8.98;3.28;;;;;;;12.52;62.73;101958.84;5059605;28;20079;-78
2022/05/14 00:10:22;;;;;;;7.72;3.05;;;;;;;12.51;62.37;101959.75;5061026;28;20040;-78
2022/05/14 00:13:06;;;;;;;6.38;3.22;;;;;;;12.51;62.14;101963.19;5055413;28;20036;-78
2022/05/14 00:15:38;;;;;;;12.10;3.30;;;;;;;12.55;61.70;101964.88;5061592;28;20479;-78
2022/05/14 00:18:07;;;;;;;9.65;3.15;;;;;;;12.57;61.91;101951.78;5060178;28;20472;-78
2022/05/14 00:20:33;;;;;;;15.55;3.42;;;;;;;12.58;61.47;101959.63;5060210;28;20119;-78
2022/05/14 00:22:59;;;;;;;8.68;2.85;;;;;;;12.59;61.40;101961.34;5058264;28;20032;-78
2022/05/14 00:25:25;;;;;;;9.77;3.30;;;;;;;12.59;60.80;101958.72;5059933;28;21825;-78
2022/05/14 00:27:52;;;;;;;9.23;3.20;;;;;;;12.60;60.71;101955.22;5058135;28;20017;-78
2022/05/14 00:30:20;;;;;;;8.48;3.30;;;;;;;12.60;60.55;101957.84;5059349;28;20438;-78
2022/05/14 00:32:47;;;;;;;7.72;3.08;;;;;;;12.60;60.21;101952.63;5057556;28;20032;-78
2022/05/14 00:35:13;;;;;;;8.55;3.00;;;;;;;12.59;60.34;101950.91;5053057;28;20033;-78
2022/05/14 00:37:39;;;;;;;9.18;3.20;;;;;;;12.60;59.86;101952.63;5060395;28;20064;-78
2022/05/14 00:40:09;;;;;;;11.43;3.08;;;;;;;12.58;59.70;101951.78;5055184;28;20058;-78
2022/05/14 00:42:35;;;;;;;9.73;2.80;;;;;;;12.61;59.41;101953.47;5056127;28;20483;-78
2022/05/14 00:45:00;;;;;;;8.57;2.90;;;;;;;12.63;59.22;101958.69;5054440;28;20043;-78
2022/05/14 00:47:31;;;;;;;6.75;2.75;;;;;;;12.62;59.12;101949.97;5055397;28;20017;-78
2022/05/14 00:49:57;;;;;;;6.85;2.83;;;;;;;12.63;58.92;101946.47;5056862;28;20110;-78
2022/05/14 00:52:22;;;;;;;7.38;3.00;;;;;;;12.63;59.07;101949.09;5056191;28;20040;-78
2022/05/14 00:55:00;;;;;;;9.77;2.60;;;;;;;12.63;58.58;101948.25;5053900;28;20024;-78
2022/05/14 00:57:28;;;;;;;9.88;2.92;;;;;;;12.60;58.81;101949.13;5054544;28;20491;-78
2022/05/14 00:59:55;;;;;;;12.75;3.17;;;;;;;12.57;58.58;101952.66;5060626;28;20031;-78
2022/05/14 01:02:21;;;;;;;9.85;3.00;;;;;;;12.54;58.58;101942.28;5059711;28;20086;-78
2022/05/14 01:04:47;;;;;;;10.40;2.70;;;;;;;12.49;58.78;101951.06;5054162;28;20036;-78
2022/05/14 01:07:16;;;;;;;7.53;2.80;;;;;;;12.46;58.61;101936.34;5053585;28;20032;-78
2022/05/14 01:09:45;;;;;;;8.40;2.90;;;;;;;12.42;58.74;101947.69;5052740;28;20063;-78
2022/05/14 01:12:12;;;;;;;6.40;2.72;;;;;;;12.38;58.98;101944.25;5054662;28;20053;-78
2022/05/14 01:14:37;;;;;;;7.82;2.80;;;;;;;12.36;58.89;101942.56;5056079;28;20028;-78
2022/05/14 01:17:03;;;;;;;6.45;3.00;;;;;;;12.33;58.76;101938.25;5052512;28;20047;-78
2022/05/14 01:19:28;;;;;;;6.25;2.60;;;;;;;12.29;59.01;101932.25;5052015;28;20037;-78
2022/05/14 01:22:09;;;;;;;8.50;2.55;;;;;;;12.28;58.70;101935.72;5052698;28;20041;-78
2022/05/14 01:27:52;;;;;;;7.45;2.33;;;;;;;12.22;58.84;101938.41;5055213;28;20044;-78
2022/05/14 01:30:18;;;;;;;4.78;2.45;;;;;;;12.21;58.81;101939.31;5056030;28;20024;-78
2022/05/14 01:32:46;;;;;;;7.68;2.45;;;;;;;12.20;58.78;101941.94;5052439;28;20693;-78
2022/05/14 01:35:16;;;;;;;6.85;2.60;;;;;;;12.17;58.70;101942.84;5051508;28;20028;-78
2022/05/14 01:37:43;;;;;;;7.18;2.70;;;;;;;12.16;58.57;101948.09;5052256;28;20037;-78
2022/05/14 01:40:08;;;;;;;6.22;2.45;;;;;;;12.11;59.00;101948.16;5052011;28;20029;-78
2022/05/14 01:42:34;;;;;;;5.53;2.60;;;;;;;12.09;59.05;101936.88;5055366;28;20039;-78
2022/05/14 01:44:59;;;;;;;4.35;2.20;;;;;;;12.08;59.18;101945.59;5054502;28;20111;-78
2022/05/14 01:47:24;;;;;;;6.78;2.60;;;;;;;12.06;59.17;101944.75;5056547;28;20041;-78
2022/05/14 01:49:50;;;;;;;6.45;2.90;;;;;;;12.05;59.57;101948.25;5062518;28;20360;-78
2022/05/14 01:52:15;;;;;;;8.13;2.50;;;;;;;12.02;59.34;101943.94;5061751;28;20028;-78
2022/05/14 01:54:40;;;;;;;8.07;2.55;;;;;;;11.98;59.63;101948.31;5059705;28;20438;-78
2022/05/14 01:57:06;;;;;;;9.32;2.72;;;;;;;11.97;59.65;101951.78;5065029;28;20028;-78
2022/05/14 01:59:31;;;;;;;6.70;2.88;;;;;;;11.95;59.89;101948.34;5062712;28;20482;-78
2022/05/14 02:01:56;;;;;;;6.90;2.83;;;;;;;11.93;59.86;101949.22;5057229;28;20052;-78
2022/05/14 02:04:21;;;;;;;6.70;2.67;;;;;;;11.90;59.51;101951.88;5059988;28;20034;-78
2022/05/14 02:06:47;;;;;;;7.05;3.00;;;;;;;11.89;59.94;101950.16;5058473;28;20056;-78
2022/05/14 02:09:14;;;;;;;8.60;2.50;;;;;;;11.84;60.14;101950.22;5064307;28;20357;-79
2022/05/14 02:11:41;;;;;;;6.85;2.40;;;;;;;11.80;59.87;101949.41;5059017;28;20495;-78
2022/05/14 02:14:07;;;;;;;4.88;2.33;;;;;;;11.78;59.99;101952.94;5063100;28;20119;-78
2022/05/14 02:16:33;;;;;;;8.20;2.60;;;;;;;11.76;59.71;101952.06;5059606;28;20032;-78
2022/05/14 02:18:58;;;;;;;5.45;2.45;;;;;;;11.74;59.96;101948.63;5061172;28;20078;-78
2022/05/14 02:21:24;;;;;;;6.72;2.50;;;;;;;11.73;59.96;101941.69;5059364;28;20388;-78
2022/05/14 02:23:51;;;;;;;8.70;2.72;;;;;;;11.71;59.71;101946.06;5064018;28;20025;-78
2022/05/14 02:26:17;;;;;;;4.03;2.25;;;;;;;11.71;60.08;101953.88;5068035;28;20036;-78
2022/05/14 02:28:43;;;;;;;8.82;2.90;;;;;;;11.67;60.16;101953.91;5064151;28;20028;-78
2022/05/14 02:31:09;;;;;;;10.13;2.60;;;;;;;11.65;60.13;101960.03;5063536;28;20051;-78
2022/05/14 02:33:34;;;;;;;6.47;2.70;;;;;;;11.63;60.11;101956.56;5065779;28;20025;-78
2022/05/14 02:36:00;;;;;;;4.95;2.78;;;;;;;11.61;60.10;101959.22;5067058;28;20029;-78
2022/05/14 02:38:28;;;;;;;6.18;2.70;;;;;;;11.59;60.04;101950.53;5064480;28;20475;-78
2022/05/14 02:40:54;;;;;;;7.25;2.67;;;;;;;11.57;59.92;101967.94;5067565;28;20241;-78
2022/05/14 02:43:20;;;;;;;9.45;2.88;;;;;;;11.54;60.04;101968.81;5065795;28;20087;-78
2022/05/14 02:45:45;;;;;;;7.85;2.90;;;;;;;11.53;59.88;101968.84;5065226;28;20040;-78
2022/05/14 02:48:11;;;;;;;5.80;2.38;;;;;;;11.52;59.75;101967.13;5065129;28;20029;-78
2022/05/14 02:50:37;;;;;;;5.75;2.65;;;;;;;11.50;60.04;101967.16;5068337;28;20036;-77
2022/05/14 02:53:02;;;;;;;7.05;2.45;;;;;;;11.47;60.09;101964.56;5066548;28;20481;-78
2022/05/14 02:55:29;;;;;;;12.02;2.50;;;;;;;11.46;60.27;101968.06;5066628;28;20150;-78
2022/05/14 02:57:54;;;;;;;8.43;2.60;;;;;;;11.43;60.29;101968.09;5066004;28;20051;-78
2022/05/14 03:00:20;;;;;;;6.28;2.80;;;;;;;11.42;60.47;101965.50;5066110;28;20063;-78
2022/05/14 03:02:46;;;;;;;7.35;2.50;;;;;;;11.40;60.28;101970.72;5064884;28;20024;-78
2022/05/14 03:05:13;;;;;;;9.90;2.80;;;;;;;11.39;60.54;101974.22;5062643;28;20473;-78
2022/05/14 03:07:39;;;;;;;5.30;2.58;;;;;;;11.38;60.56;101968.16;5063172;28;20032;-78
2022/05/14 03:10:05;;;;;;;7.07;2.25;;;;;;;11.39;60.52;101961.19;5065282;28;20025;-78
2022/05/14 03:12:30;;;;;;;8.70;2.55;;;;;;;11.39;60.51;101962.06;5063581;28;20044;-78
2022/05/14 03:14:55;;;;;;;7.70;2.80;;;;;;;11.37;60.29;101963.81;5061981;28;20033;-78
2022/05/14 03:17:21;;;;;;;6.47;2.35;;;;;;;11.37;60.41;101965.53;5065199;28;20037;-78
2022/05/14 03:19:47;;;;;;;7.97;2.60;;;;;;;11.34;60.22;101966.44;5072153;28;20395;-78
2022/05/14 03:22:12;;;;;;;8.30;2.75;;;;;;;11.32;60.45;101960.38;5068539;28;20383;-78
2022/05/14 03:24:37;;;;;;;6.30;2.40;;;;;;;11.28;60.34;101961.28;5060504;28;20033;-78
2022/05/14 03:27:04;;;;;;;5.47;2.38;;;;;;;11.27;60.35;101971.75;5063890;28;20028;-79
2022/05/14 03:29:29;;;;;;;5.38;2.28;;;;;;;11.24;60.37;101963.06;5064881;28;20383;-78
2022/05/14 03:31:57;;;;;;;6.50;2.40;;;;;;;11.20;60.56;101960.53;5068262;28;20036;-78
2022/05/14 03:34:23;;;;;;;9.32;2.40;;;;;;;11.18;60.64;101967.50;5062565;28;20020;-78
2022/05/14 03:36:49;;;;;;;7.43;2.72;;;;;;;11.16;60.69;101964.03;5061463;28;20028;-78
2022/05/14 03:39:15;;;;;;;5.55;2.40;;;;;;;11.14;60.88;101957.97;5063669;28;20028;-78
2022/05/14 03:41:41;;;;;;;9.68;2.60;;;;;;;11.11;60.70;101953.66;5064046;28;20475;-76
2022/05/14 03:44:06;;;;;;;5.85;2.50;;;;;;;11.08;60.85;101959.78;5064921;28;20031;-76
2022/05/14 03:46:32;;;;;;;5.93;2.35;;;;;;;11.06;60.88;101965.88;5063957;28;20740;-76
2022/05/14 03:48:57;;;;;;;5.30;2.33;;;;;;;11.04;60.87;101963.28;5065676;28;20025;-76
2022/05/14 03:51:22;;;;;;;5.68;2.30;;;;;;;11.02;60.97;101964.16;5064359;28;20108;-75
2022/05/14 03:53:47;;;;;;;5.75;2.28;;;;;;;11.00;60.92;101956.38;5064865;28;20395;-76
2022/05/14 03:56:13;;;;;;;8.85;2.60;;;;;;;10.98;60.99;101962.47;5060355;28;20056;-75
2022/05/14 03:58:39;;;;;;;7.15;2.55;;;;;;;10.95;60.92;101963.34;5063958;28;20025;-75
2022/05/14 04:01:05;;;;;;;8.23;2.28;;;;;;;10.92;61.20;101963.41;5063494;28;20029;-76
2022/05/14 04:03:33;;;;;;;6.30;2.35;;;;;;;10.89;61.28;101959.06;5066772;28;20035;-76
2022/05/14 04:05:59;;;;;;;5.97;2.40;;;;;;;10.88;61.15;101962.56;5061600;28;20020;-76
2022/05/14 04:08:25;;;;;;;4.85;2.40;;;;;;;10.87;61.38;101959.97;5065188;28;20050;-76
2022/05/14 04:10:51;;;;;;;7.18;2.22;;;;;;;10.84;61.46;101962.59;5064720;28;20052;-76
2022/05/14 04:13:16;;;;;;;8.43;2.50;;;;;;;10.83;61.56;101958.25;5065232;28;20024;-76
2022/05/14 04:15:41;;;;;;;9.43;2.50;;;;;;;10.82;61.60;101966.94;5061864;28;20059;-76
2022/05/14 04:18:09;;;;;;;6.85;2.50;;;;;;;10.81;61.71;101973.03;5061910;28;20028;-76
2022/05/14 04:20:34;;;;;;;7.22;2.70;;;;;;;10.81;61.84;101970.44;5062790;28;22802;-75
2022/05/14 04:22:59;;;;;;;7.85;2.70;;;;;;;10.79;61.88;101962.66;5063203;28;20578;-75
2022/05/14 04:25:25;;;;;;;8.00;2.40;;;;;;;10.80;61.65;101964.38;5065682;28;20029;-75
2022/05/14 04:27:50;;;;;;;7.75;2.40;;;;;;;10.80;61.87;101982.59;5061759;28;20495;-75
2022/05/14 04:30:17;;;;;;;5.97;2.40;;;;;;;10.80;61.69;101972.19;5063562;28;20035;-75
2022/05/14 04:32:43;;;;;;;6.97;2.60;;;;;;;10.77;61.92;101970.44;5063735;28;20214;-76
2022/05/14 04:35:09;;;;;;;7.60;2.80;;;;;;;10.78;61.92;101971.31;5062506;28;20223;-75
2022/05/14 04:37:35;;;;;;;9.90;2.78;;;;;;;10.76;62.10;101973.94;5062911;28;20255;-76
2022/05/14 04:40:00;;;;;;;7.82;2.72;;;;;;;10.78;62.81;101973.94;5062293;28;20506;-75
2022/05/14 04:42:26;;;;;;;5.60;2.55;;;;;;;10.79;62.25;101975.66;5066479;28;20035;-75
2022/05/14 04:44:51;;;;;;;4.93;2.58;;;;;;;10.80;62.26;101984.31;5062117;28;20024;-75
2022/05/14 04:47:17;;;;;;;8.30;2.95;;;;;;;10.82;62.64;101985.16;5062048;28;20107;-75
2022/05/14 04:49:45;;;;;;;9.73;3.15;;;;;;;10.85;62.63;101977.34;5062764;28;20025;-75
2022/05/14 04:52:11;;;;;;;8.30;2.83;;;;;;;10.87;62.52;101973.00;5062908;28;20020;-76
2022/05/14 04:54:37;;;;;;;8.63;3.20;;;;;;;10.89;62.71;101984.25;5060072;28;20052;-76
2022/05/14 04:57:03;;;;;;;6.82;2.67;;;;;;;10.90;62.80;101979.03;5063471;28;20109;-75
2022/05/14 04:59:28;;;;;;;9.95;2.90;;;;;;;10.91;62.86;101985.13;5062523;28;20028;-76
2022/05/14 05:04:43;;;;;;;7.88;3.08;;;;;;;10.94;62.98;101987.66;5065529;28;20449;-76
2022/05/14 05:07:08;;;;;;;7.43;3.25;;;;;;;10.96;63.09;101991.13;5060662;28;20412;-75
2022/05/14 05:09:33;;;;;;;8.35;3.58;;;;;;;10.97;63.22;101994.59;5064379;28;20490;-76
2022/05/14 05:11:59;;;;;;;7.85;3.22;;;;;;;10.99;63.46;101988.50;5065270;28;20052;-76
2022/05/14 05:14:25;;;;;;;8.10;3.47;;;;;;;11.03;63.42;101998.00;5062287;28;20040;-75
2022/05/14 05:16:50;;;;;;;8.35;3.60;;;;;;;11.06;63.30;102002.31;5064456;28;20031;-75
2022/05/14 05:19:16;;;;;;;6.55;3.28;;;;;;;11.10;63.39;102005.78;5064345;28;20064;-75
2022/05/14 05:21:41;;;;;;;6.70;3.50;;;;;;;11.13;63.18;101997.91;5061545;28;20028;-76
2022/05/14 05:24:07;;;;;;;7.35;3.60;;;;;;;11.13;63.62;101998.78;5065011;28;20456;-75
2022/05/14 05:26:33;;;;;;;8.73;3.67;;;;;;;11.15;63.46;102010.06;5062003;28;20024;-75
2022/05/14 05:28:58;;;;;;;6.97;3.55;;;;;;;11.16;63.69;102011.78;5059053;28;20059;-76
2022/05/14 05:31:23;;;;;;;7.18;3.47;;;;;;;11.19;63.75;102013.50;5061064;28;20369;-75
2022/05/14 05:33:48;;;;;;;9.27;3.50;;;;;;;11.24;64.35;102016.94;5062535;28;20039;-75
2022/05/14 05:36:14;;;;;;;9.40;3.92;;;;;;;11.28;63.98;102010.78;5060743;28;20468;-75
2022/05/14 05:38:39;;;;;;;12.52;4.40;;;;;;;11.32;63.83;102009.88;5061828;28;20040;-75
2022/05/14 05:41:04;;;;;;;9.20;4.20;;;;;;;11.36;63.92;102010.72;5062137;28;20013;-75
2022/05/14 05:43:30;;;;;;;10.75;4.63;;;;;;;11.38;64.00;102004.63;5058971;28;20036;-75
2022/05/14 05:45:56;;;;;;;12.23;4.18;;;;;;;11.43;64.20;102016.75;5063566;28;20089;-76
2022/05/14 05:48:22;;;;;;;13.48;4.85;;;;;;;11.48;64.21;102014.94;5064823;28;20095;-76
2022/05/14 05:50:48;;;;;;;10.82;4.80;;;;;;;11.54;64.53;102014.88;5063428;28;20103;-75
2022/05/14 05:53:14;;;;;;;13.98;4.47;;;;;;;11.59;64.92;102018.31;5060381;28;20016;-75
2022/05/14 05:58:24;;;;;;;14.00;5.35;;;;;;;11.71;64.85;102029.47;5060699;28;20502;-76
2022/05/14 06:00:50;;;;;;;14.85;4.93;;;;;;;11.76;64.54;102030.28;5063170;28;20099;-76
2022/05/14 06:03:16;;;;;;;11.63;4.57;;;;;;;11.83;64.47;102037.13;5061338;28;20035;-75
2022/05/14 06:05:41;;;;;;;11.63;5.03;;;;;;;11.89;64.72;102029.25;5064434;28;20464;-76
2022/05/14 06:08:15;;;;;;;13.43;5.13;;;;;;;11.95;63.85;102028.31;5059428;28;20056;-75
2022/05/14 06:10:41;;;;;;;14.10;5.25;;;;;;;12.00;65.09;102034.38;5063024;28;20465;-76
2022/05/14 06:13:08;;;;;;;14.82;4.97;;;;;;;12.06;64.84;102043.88;5060190;28;20028;-76
2022/05/14 06:15:34;;;;;;;14.30;5.63;;;;;;;12.07;64.91;102041.22;5063944;28;20102;-76
2022/05/14 06:18:04;;;;;;;12.25;5.50;;;;;;;12.08;64.76;102039.50;5057861;28;20320;-76
2022/05/14 06:20:30;;;;;;;10.45;5.07;;;;;;;12.10;65.21;102035.13;5063298;28;20124;-75
2022/05/14 06:22:55;;;;;;;8.88;5.22;;;;;;;12.10;65.23;102035.13;5062951;28;20107;-75
2022/05/14 06:25:21;;;;;;;11.55;5.43;;;;;;;12.14;65.65;102036.78;5066659;28;20035;-76
2022/05/14 06:27:46;;;;;;;11.23;5.10;;;;;;;12.22;66.04;102037.56;5075783;28;20036;-76
2022/05/14 06:30:12;;;;;;;13.68;5.47;;;;;;;12.29;66.02;102041.81;5060477;28;20017;-76
2022/05/14 06:32:37;;;;;;;11.55;5.47;;;;;;;12.34;65.63;102053.94;5062931;28;20020;-76
2022/05/14 06:35:05;;;;;;;13.05;5.25;;;;;;;12.36;65.66;102046.94;5063283;28;20040;-75
2022/05/14 06:37:30;;;;;;;12.73;5.70;;;;;;;12.42;65.48;102052.09;5063627;28;20441;-75
2022/05/14 06:39:55;;;;;;;16.48;5.63;;;;;;;12.48;65.49;102051.97;5065204;28;20038;-75
2022/05/14 06:42:21;;;;;;;12.73;5.70;;;;;;;12.56;65.93;102050.13;5068709;28;20164;-76
2022/05/14 06:44:46;;;;;;;14.70;5.88;;;;;;;12.63;65.51;102050.91;5068630;28;20024;-75
2022/05/14 06:47:11;;;;;;;14.38;5.88;;;;;;;12.70;65.86;102052.56;5066981;28;20047;-76
2022/05/14 06:49:37;;;;;;;12.68;5.60;;;;;;;12.78;65.42;102048.94;5071461;28;20012;-75
2022/05/14 06:52:05;;;;;;;12.98;5.70;;;;;;;12.85;66.06;102054.03;5075589;28;20451;-76
2022/05/14 06:54:32;;;;;;;13.93;6.18;;;;;;;12.92;65.60;102048.75;5073370;28;20020;-75
2022/05/14 06:56:57;;;;;;;13.27;5.60;;;;;;;12.98;65.46;102061.72;5071974;28;20017;-76
2022/05/14 06:59:23;;;;;;;13.82;5.88;;;;;;;13.03;65.08;102052.91;5074293;28;20078;-75
2022/05/14 07:01:51;;;;;;;13.15;5.95;;;;;;;13.10;65.53;102045.81;5070674;28;20099;-76
2022/05/14 07:07:05;;;;;;;13.30;5.40;;;;;;;13.26;65.63;102043.78;5074301;28;20097;-76
2022/05/14 07:09:30;;;;;;;13.40;5.82;;;;;;;13.29;65.07;102050.72;5069850;28;20028;-76
2022/05/14 07:11:58;;;;;;;14.57;6.03;;;;;;;13.30;65.11;102055.91;5073303;28;20450;-75
2022/05/14 07:14:25;;;;;;;14.20;5.38;;;;;;;13.31;65.31;102059.41;5072790;28;20245;-75
2022/05/14 07:16:52;;;;;;;13.55;6.20;;;;;;;13.31;65.03;102048.97;5072991;28;20031;-76
2022/05/14 07:19:17;;;;;;;13.88;5.82;;;;;;;13.35;65.53;102041.03;5070540;28;20017;-76
2022/05/14 07:21:44;;;;;;;15.95;7.00;;;;;;;13.40;65.32;102045.31;5073673;28;20025;-76
2022/05/14 07:24:15;;;;;;;15.40;5.97;;;;;;;13.44;65.16;102055.72;5071348;28;20440;-75
2022/05/14 07:26:41;;;;;;;18.88;6.28;;;;;;;13.48;65.46;102057.38;5072637;28;20115;-75
2022/05/14 07:29:08;;;;;;;18.05;6.25;;;;;;;13.50;65.77;102055.56;5071619;28;20115;-76
2022/05/14 07:31:34;;;;;;;13.80;5.90;;;;;;;13.54;64.58;102053.78;5072079;28;20021;-75
2022/05/14 07:34:00;;;;;;;12.68;5.60;;;;;;;13.55;64.79;102054.63;5069282;28;20451;-75
2022/05/14 07:36:28;;;;;;;16.13;6.38;;;;;;;13.57;65.12;102055.47;5071004;28;20033;-76
2022/05/14 07:38:58;;;;;;;15.68;6.00;;;;;;;13.63;65.63;102052.75;5069624;28;20029;-75
2022/05/14 07:41:25;;;;;;;16.38;6.40;;;;;;;13.72;64.66;102054.34;5068013;28;20057;-76
2022/05/14 07:43:53;;;;;;;13.43;6.20;;;;;;;13.78;65.13;102057.69;5064929;28;20020;-76
2022/05/14 07:46:26;;;;;;;17.45;6.47;;;;;;;13.83;64.34;102054.13;5063176;28;20016;-76
2022/05/14 07:48:52;;;;;;;13.57;6.07;;;;;;;13.87;64.40;102058.38;5064495;28;20138;-76
2022/05/14 07:51:18;;;;;;;12.43;5.88;;;;;;;13.94;65.17;102065.22;5073044;28;20047;-75
2022/05/14 07:53:44;;;;;;;13.75;6.35;;;;;;;14.01;64.23;102064.19;5067829;28;20349;-76
2022/05/14 07:56:09;;;;;;;16.23;6.35;;;;;;;14.06;64.06;102059.72;5070322;28;20016;-76
2022/05/14 07:58:36;;;;;;;14.07;6.65;;;;;;;14.10;64.93;102061.41;5069829;28;20065;-76
2022/05/14 08:01:02;;;;;;;17.75;6.25;;;;;;;14.19;65.23;102065.59;5071109;28;20063;-76
2022/05/14 08:03:27;;;;;;;13.95;6.35;;;;;;;14.26;64.75;102067.16;5067616;28;20472;-76
2022/05/14 08:05:54;;;;;;;13.52;6.20;;;;;;;14.34;63.59;102066.13;5064619;28;20488;-76
2022/05/14 08:08:20;;;;;;;14.65;6.10;;;;;;;14.39;63.58;102067.75;5064332;28;20020;-76
2022/05/14 08:10:48;;;;;;;13.88;5.97;;;;;;;14.47;63.62;102066.75;5061582;28;20053;-77
2022/05/14 08:13:16;;;;;;;14.75;5.97;;;;;;;14.49;62.86;102060.56;5061196;28;20025;-79
2022/05/14 08:15:42;;;;;;;15.27;6.20;;;;;;;14.53;63.35;102066.56;5058815;28;20084;-76
2022/05/14 08:18:08;;;;;;;14.27;6.22;;;;;;;14.56;62.31;102067.38;5060493;28;20028;-76
2022/05/14 08:20:34;;;;;;;19.98;6.22;;;;;;;14.59;63.04;102066.44;5066623;28;20025;-76
2022/05/14 08:25:44;;;;;;;15.15;5.97;;;;;;;14.67;61.95;102069.78;5065004;28;20056;-76
2022/05/14 08:28:09;;;;;;;14.15;6.10;;;;;;;14.72;62.47;102061.81;5063717;28;20491;-76
2022/05/14 08:30:36;;;;;;;15.20;6.57;;;;;;;14.78;62.88;102066.06;5062481;28;20024;-76
2022/05/14 08:33:03;;;;;;;15.75;6.28;;;;;;;14.85;63.02;102072.88;5061699;28;20032;-76
2022/05/14 08:35:29;;;;;;;14.93;6.50;;;;;;;14.91;62.00;102062.22;5060291;28;20040;-76
2022/05/14 08:37:55;;;;;;;16.95;6.93;;;;;;;14.98;61.82;102066.44;5066392;28;20040;-76
2022/05/14 08:40:23;;;;;;;15.43;7.20;;;;;;;15.05;62.11;102066.25;5066741;28;20553;-76
2022/05/14 08:42:54;;;;;;;13.50;6.93;;;;;;;15.11;61.85;102060.88;5065003;28;20110;-76
2022/05/14 08:45:22;;;;;;;15.10;7.13;;;;;;;15.21;62.16;102061.50;5064525;28;20055;-75
2022/05/14 08:48:05;;;;;;;13.20;6.80;;;;;;;15.27;61.66;102072.69;5061621;28;20393;-75
2022/05/14 08:50:35;;;;;;;13.20;6.63;;;;;;;15.37;62.22;102067.22;5064512;28;20483;-76
2022/05/14 08:53:03;;;;;;;13.80;6.75;;;;;;;15.44;62.33;102055.66;5065404;28;20024;-77
2022/05/14 08:55:39;;;;;;;14.70;6.47;;;;;;;15.54;61.13;102064.16;5067512;28;20027;-77
2022/05/14 08:58:19;;;;;;;14.45;6.70;;;;;;;15.60;60.25;102058.75;5063155;28;20041;-77
2022/05/14 09:00:44;;;;;;;14.10;6.85;;;;;;;15.61;60.37;102066.56;5059428;28;20033;-77
2022/05/14 09:03:09;;;;;;;15.35;7.35;;;;;;;15.60;59.94;102059.59;5055368;28;20063;-77
2022/05/14 09:05:37;;;;;;;15.60;7.28;;;;;;;15.66;61.04;102055.09;5061922;28;20082;-77
2022/05/14 09:08:03;;;;;;;16.05;7.38;;;;;;;15.72;60.48;102058.41;5058818;28;20040;-77
2022/05/14 09:10:36;;;;;;;16.60;6.93;;;;;;;15.79;60.65;102061.69;5059234;28;20067;-77
2022/05/14 09:13:40;;;;;;;13.85;6.70;;;;;;;15.88;60.27;102058.88;5054070;28;20039;-77
2022/05/14 09:16:06;;;;;;;15.85;6.50;;;;;;;15.98;60.38;102063.84;5053471;28;20052;-77
2022/05/14 09:18:41;;;;;;;12.43;6.63;;;;;;;16.02;58.94;102055.81;5063013;28;20351;-77
2022/05/14 09:21:23;;;;;;;19.02;6.65;;;;;;;16.07;59.42;102055.69;5058031;28;20060;-76
2022/05/14 09:23:54;;;;;;;;;;;;;;;16.14;59.25;102051.97;5063895;28;20039;-77
2022/05/14 09:26:29;;;;;;;16.63;6.70;;;;;;;16.19;58.50;102046.59;5059976;28;19920;-77
2022/05/14 09:29:17;;;;;;;13.00;6.25;;;;;;;16.24;58.15;102058.66;5058919;28;20103;-76
2022/05/14 09:32:02;;;;;;;12.10;6.00;;;;;;;16.31;57.83;102063.75;5058290;28;20119;-77
2022/05/14 09:34:30;;;;;;;15.43;6.30;;;;;;;16.35;57.61;102060.13;5064439;28;20065;-77
2022/05/14 09:37:18;;;;;;;12.88;6.85;;;;;;;16.41;58.18;102054.66;5061534;28;20061;-77
2022/05/14 09:39:55;;;;;;;13.32;6.65;;;;;;;16.47;58.12;102059.75;5061253;28;20116;-77
2022/05/14 09:42:41;;;;;;;12.70;6.63;;;;;;;16.47;57.88;102057.09;5060601;28;20048;-77
2022/05/14 09:45:32;;;;;;;17.25;7.05;;;;;;;16.56;58.22;102068.25;5058199;28;20048;-77
2022/05/14 09:48:10;;;;;;;12.70;6.13;;;;;;;16.64;57.27;102045.22;5053512;28;20083;-77
2022/05/14 09:50:36;;;;;;;18.23;6.68;;;;;;;16.64;56.20;102047.84;5058255;28;20438;-77
2022/05/14 09:53:05;;;;;;;14.27;6.72;;;;;;;16.67;56.38;102047.75;5064002;28;20030;-77
2022/05/14 09:55:59;;;;;;;12.15;5.93;;;;;;;16.73;56.84;102046.69;5062653;28;20075;-77
2022/05/14 09:58:43;;;;;;;15.15;6.07;;;;;;;16.78;56.35;102047.41;5063389;28;20552;-77
2022/05/14 10:01:41;;;;;;;11.23;5.20;;;;;;;16.81;56.43;102052.56;5059137;28;20119;-77
2022/05/14 10:04:15;;;;;;;14.52;5.95;;;;;;;16.89;55.24;102047.06;5057172;28;20045;-77
2022/05/14 10:07:03;;;;;;;12.77;6.40;;;;;;;16.98;56.90;102057.28;5061076;28;20036;-76
2022/05/14 10:10:10;;;;;;;12.13;5.35;;;;;;;17.12;55.54;102054.19;5059287;28;20044;-77
2022/05/14 10:12:46;;;;;;;20.45;5.53;;;;;;;17.25;54.17;102044.13;5003764;28;20136;-79
2022/05/14 10:15:31;;;;;;;10.23;5.20;;;;;;;17.38;52.81;102049.78;5005437;28;20511;-78
2022/05/14 10:18:12;;;;;;;14.52;4.38;;;;;;;17.53;52.16;102048.41;5045864;28;20269;-78
2022/05/14 10:20:49;;;;;;;11.13;4.75;;;;;;;17.68;53.66;102053.09;5066410;28;20039;-78
2022/05/14 10:26:47;;;;;;;11.85;4.20;;;;;;;17.85;51.36;102049.00;5067417;28;20101;-78
2022/05/14 10:29:33;;;;;;;10.27;3.90;;;;;;;17.97;49.56;102047.69;5064726;28;20035;-77
2022/05/14 10:32:03;;;;;;;11.55;4.78;;;;;;;18.09;48.93;102046.41;5067566;28;20024;-77
2022/05/14 10:35:04;;;;;;;8.75;4.30;;;;;;;18.19;50.85;102037.22;5067710;28;20036;-78
2022/05/14 10:37:47;;;;;;;11.70;3.90;;;;;;;18.21;49.40;102043.28;5062640;28;20075;-78
2022/05/14 10:40:20;;;;;;;10.77;3.80;;;;;;;18.19;48.15;102047.75;5063921;28;20498;-77
2022/05/14 10:42:54;;;;;;;7.90;3.90;;;;;;;18.19;48.05;102055.66;5067019;28;20043;-78
2022/05/14 10:45:26;;;;;;;10.45;4.53;;;;;;;18.19;48.62;102045.97;5066654;28;20028;-76
2022/05/14 10:48:39;;;;;;;9.25;4.65;;;;;;;18.24;50.34;102040.53;5066932;28;21634;-78
2022/05/14 10:51:08;;;;;;;9.07;3.63;;;;;;;18.30;47.19;102047.34;5025840;28;20029;-78
2022/05/14 10:53:34;;;;;;;9.95;3.92;;;;;;;18.33;46.94;102034.91;5044099;28;20048;-79
2022/05/14 10:56:07;;;;;;;13.57;3.75;;;;;;;18.38;46.43;102036.50;5065847;28;20024;-77
2022/05/14 10:58:53;;;;;;;12.20;3.80;;;;;;;18.43;45.92;102045.94;5067151;28;20463;-78
2022/05/14 11:01:32;;;;;;;7.22;3.50;;;;;;;18.54;46.14;102037.59;5068560;28;20483;-78
2022/05/14 11:04:22;;;;;;;9.93;3.60;;;;;;;18.69;46.46;102041.41;5067661;28;20518;-77
2022/05/14 11:07:02;;;;;;;9.65;4.28;;;;;;;18.79;45.57;102039.22;5065134;28;20067;-77
2022/05/14 11:09:30;;;;;;;10.68;4.13;;;;;;;18.85;46.05;102046.88;5066070;28;20025;-77
2022/05/14 11:11:59;;;;;;;10.85;4.40;;;;;;;18.92;45.37;102048.34;5068142;28;20048;-77
2022/05/14 11:14:37;;;;;;;10.25;4.05;;;;;;;19.04;45.76;102048.78;5066815;28;20034;-77
2022/05/14 11:17:15;;;;;;;12.25;3.97;;;;;;;19.09;45.39;102042.38;5065685;28;20028;-77
2022/05/14 11:19:40;;;;;;;8.40;3.92;;;;;;;19.18;46.75;102033.22;5067658;28;20076;-77
2022/05/14 11:22:05;;;;;;;9.18;4.00;;;;;;;19.24;45.16;102040.00;5066190;28;20056;-77
2022/05/14 11:24:38;;;;;;;9.80;4.22;;;;;;;19.25;46.01;102045.22;5068057;28;20048;-77
2022/05/14 11:27:04;;;;;;;8.85;4.20;;;;;;;19.21;43.98;102048.91;5066550;28;20479;-77
2022/05/14 11:29:45;;;;;;;13.13;4.50;;;;;;;19.21;45.18;102042.81;5067161;28;20116;-78
2022/05/14 11:32:16;;;;;;;14.05;4.68;;;;;;;19.28;45.46;102040.75;5064449;28;20111;-77
2022/05/14 11:34:56;;;;;;;11.75;4.78;;;;;;;19.32;45.20;102037.91;5065122;28;20036;-77
2022/05/14 11:37:27;;;;;;;7.30;4.22;;;;;;;19.38;44.81;102034.13;5068561;28;20127;-77
2022/05/14 11:40:14;;;;;;;10.40;4.15;;;;;;;19.41;45.19;102049.84;5065646;28;20066;-78
2022/05/14 11:42:40;;;;;;;11.70;4.13;;;;;;;19.45;44.72;102051.44;5066047;28;20391;-77
2022/05/14 11:45:18;;;;;;;8.48;4.20;;;;;;;19.46;44.78;102045.22;5065714;28;20032;-77
2022/05/14 11:47:44;;;;;;;11.55;4.65;;;;;;;19.44;43.31;102044.44;5065182;28;20045;-77